createdAt,value
2019-03-21T00:01:18.722Z,21.37
2019-03-21T00:03:48.400Z,21.43
2019-03-21T00:06:17.394Z,21.17
2019-03-21T00:08:46.459Z,21.53
2019-03-21T00:11:33.184Z,21.53
2019-03-21T00:14:07.174Z,22.13
2019-03-21T00:16:34.429Z,22.37
2019-03-21T00:19:03.514Z,22.07
2019-03-21T00:21:32.556Z,22.43
2019-03-21T00:24:01.537Z,23.33
2019-03-21T00:26:31.426Z,24.70
2019-03-21T00:29:00.665Z,23.40
2019-03-21T00:31:29.675Z,24.37
2019-03-21T00:33:58.661Z,24.43
2019-03-21T00:36:27.776Z,25.87
2019-03-21T00:38:56.873Z,25.97
2019-03-21T00:41:25.899Z,26.23
2019-03-21T00:43:54.939Z,25.30
2019-03-21T00:46:23.955Z,26.47
2019-03-21T00:48:52.995Z,26.00
2019-03-21T00:51:22.129Z,25.33
2019-03-21T00:53:51.110Z,26.83
2019-03-21T00:56:21.600Z,24.33
2019-03-21T00:58:50.577Z,26.00
2019-03-21T01:01:19.595Z,24.53
2019-03-21T01:03:48.615Z,25.03
2019-03-21T01:06:17.606Z,25.97
2019-03-21T01:08:48.448Z,25.57
2019-03-21T01:11:17.483Z,25.00
2019-03-21T01:13:46.639Z,23.43
2019-03-21T01:16:15.702Z,26.13
2019-03-21T01:18:44.767Z,25.03
2019-03-21T01:21:13.773Z,24.30
2019-03-21T01:23:42.819Z,25.60
2019-03-21T01:26:11.795Z,24.93
2019-03-21T01:28:40.861Z,24.87
2019-03-21T01:31:09.857Z,25.43
2019-03-21T01:33:38.923Z,27.17
2019-03-21T01:36:07.910Z,25.17
2019-03-21T01:38:36.959Z,23.63
2019-03-21T01:41:05.986Z,24.23
2019-03-21T01:43:34.989Z,25.40
2019-03-21T01:46:05.364Z,23.80
2019-03-21T01:48:34.352Z,23.80
2019-03-21T01:51:03.325Z,24.17
2019-03-21T01:53:32.413Z,24.27
2019-03-21T01:56:01.455Z,24.90
2019-03-21T01:58:30.516Z,24.93
2019-03-21T02:00:59.497Z,24.07
2019-03-21T02:03:28.482Z,23.13
2019-03-21T02:05:57.555Z,24.60
2019-03-21T02:08:26.707Z,23.20
2019-03-21T02:10:55.666Z,24.50
2019-03-21T02:13:24.678Z,23.80
2019-03-21T02:15:53.649Z,24.03
2019-03-21T02:18:22.697Z,24.30
2019-03-21T02:20:51.741Z,24.03
2019-03-21T02:23:20.751Z,22.53
2019-03-21T02:25:49.820Z,21.10
2019-03-21T02:28:18.803Z,22.73
2019-03-21T02:30:47.786Z,23.37
2019-03-21T02:33:26.495Z,22.57
2019-03-21T02:35:55.572Z,24.10
2019-03-21T02:38:24.642Z,20.97
2019-03-21T02:40:53.737Z,21.80
2019-03-21T02:43:22.747Z,23.17
2019-03-21T02:45:51.767Z,22.47
2019-03-21T02:48:20.814Z,21.90
2019-03-21T02:50:49.889Z,21.77
2019-03-21T02:53:18.878Z,22.37
2019-03-21T02:55:47.857Z,23.80
2019-03-21T02:58:19.779Z,23.20
2019-03-21T03:00:48.819Z,20.87
2019-03-21T03:03:17.791Z,21.77
2019-03-21T03:05:46.771Z,22.23
2019-03-21T03:08:15.897Z,21.90
2019-03-21T03:10:46.365Z,22.03
2019-03-21T03:13:15.378Z,21.67
2019-03-21T03:15:44.437Z,21.27
2019-03-21T03:18:13.450Z,21.27
2019-03-21T03:20:42.560Z,21.33
2019-03-21T03:23:11.599Z,21.10
2019-03-21T03:25:40.661Z,22.20
2019-03-21T03:28:17.499Z,21.80
2019-03-21T03:30:46.534Z,22.67
2019-03-21T03:33:15.517Z,21.27
2019-03-21T03:35:44.582Z,21.50
2019-03-21T03:38:13.651Z,21.43
2019-03-21T03:40:47.422Z,22.00
2019-03-21T03:43:16.463Z,21.23
2019-03-21T03:45:45.528Z,20.27
2019-03-21T03:48:14.504Z,20.50
2019-03-21T03:50:43.570Z,20.40
2019-03-21T03:53:13.992Z,22.30
2019-03-21T03:55:43.081Z,22.70
2019-03-21T03:58:12.934Z,20.27
2019-03-21T04:00:42.848Z,21.90
2019-03-21T04:03:11.825Z,22.10
2019-03-21T04:05:40.906Z,22.77
2019-03-21T04:08:09.946Z,22.27
2019-03-21T04:10:40.041Z,22.43
2019-03-21T04:13:09.115Z,21.93
2019-03-21T04:15:51.763Z,21.63
2019-03-21T04:18:08.835Z,21.83
2019-03-21T04:20:38.561Z,23.27
2019-03-21T04:23:10.698Z,21.50
2019-03-21T04:25:44.157Z,20.83
2019-03-21T04:28:14.965Z,21.63
2019-03-21T04:30:44.458Z,22.53
2019-03-21T04:33:16.493Z,21.57
2019-03-21T04:35:45.524Z,21.67
2019-03-21T04:38:14.507Z,20.43
2019-03-21T04:40:43.600Z,21.67
2019-03-21T04:43:14.082Z,22.23
2019-03-21T04:45:43.571Z,21.97
2019-03-21T04:48:12.676Z,22.43
2019-03-21T04:50:41.763Z,20.90
2019-03-21T04:53:10.832Z,21.53
2019-03-21T04:55:39.838Z,22.10
2019-03-21T04:58:08.807Z,22.60
2019-03-21T05:00:38.239Z,22.23
2019-03-21T05:03:07.712Z,21.67
2019-03-21T05:05:36.749Z,23.90
2019-03-21T05:08:05.790Z,24.13
2019-03-21T05:10:34.790Z,22.97
2019-03-21T05:13:03.819Z,22.60
2019-03-21T05:15:34.224Z,22.87
2019-03-21T05:18:13.882Z,22.43
2019-03-21T05:20:42.952Z,23.53
2019-03-21T05:23:11.977Z,21.80
2019-03-21T05:25:40.931Z,21.63
2019-03-21T05:28:09.949Z,20.43
2019-03-21T05:30:50.390Z,21.90
2019-03-21T05:33:19.485Z,21.53
2019-03-21T05:35:48.480Z,20.97
2019-03-21T05:38:17.550Z,21.43
2019-03-21T05:40:46.550Z,21.50
2019-03-21T05:43:17.012Z,21.10
2019-03-21T05:45:49.424Z,19.10
2019-03-21T05:48:18.428Z,20.10
2019-03-21T05:50:47.417Z,19.10
2019-03-21T05:53:16.440Z,21.17
2019-03-21T05:55:45.433Z,19.20
2019-03-21T05:58:15.805Z,18.70
2019-03-21T06:00:45.065Z,19.53
2019-03-21T06:03:18.700Z,18.70
2019-03-21T06:05:50.068Z,18.60
2019-03-21T06:08:23.692Z,16.77
2019-03-21T06:10:52.744Z,16.47
2019-03-21T06:13:21.837Z,13.77
2019-03-21T06:15:50.878Z,15.53
2019-03-21T06:18:51.008Z,14.73
2019-03-21T06:21:48.141Z,13.00
2019-03-21T06:24:45.422Z,13.33
2019-03-21T06:27:39.202Z,12.97
2019-03-21T06:30:09.656Z,13.00
2019-03-21T06:32:38.733Z,13.47
2019-03-21T06:35:12.019Z,12.50
2019-03-21T06:37:41.104Z,14.50
2019-03-21T06:40:10.320Z,15.37
2019-03-21T06:42:39.392Z,14.63
2019-03-21T06:45:10.475Z,16.27
2019-03-21T06:47:39.547Z,15.30
2019-03-21T06:50:08.622Z,15.30
2019-03-21T06:52:41.362Z,14.63
2019-03-21T06:55:10.443Z,16.03
2019-03-21T06:57:39.430Z,15.10
2019-03-21T07:00:08.581Z,15.47
2019-03-21T07:02:37.813Z,14.07
2019-03-21T07:05:07.290Z,15.17
2019-03-21T07:07:36.412Z,14.67
2019-03-21T07:10:06.073Z,15.60
2019-03-21T07:12:35.113Z,14.60
2019-03-21T07:15:05.345Z,15.57
2019-03-21T07:17:34.406Z,14.97
2019-03-21T07:20:03.499Z,15.93
2019-03-21T07:22:32.583Z,16.67
2019-03-21T07:25:01.618Z,15.13
2019-03-21T07:27:30.626Z,16.37
2019-03-21T07:29:59.605Z,15.80
2019-03-21T07:32:33.273Z,16.10
2019-03-21T07:34:59.375Z,15.40
2019-03-21T07:37:28.401Z,15.30
2019-03-21T07:39:57.391Z,15.30
2019-03-21T07:42:26.466Z,15.97
2019-03-21T07:44:55.459Z,15.20
2019-03-21T07:47:24.424Z,16.03
2019-03-21T07:49:53.466Z,14.80
2019-03-21T07:52:22.547Z,14.70
2019-03-21T07:54:51.579Z,15.67
2019-03-21T07:57:20.594Z,14.17
2019-03-21T07:59:49.651Z,15.93
2019-03-21T08:02:18.630Z,14.27
2019-03-21T08:04:47.671Z,12.97
2019-03-21T08:07:16.731Z,14.30
2019-03-21T08:09:45.751Z,16.10
2019-03-21T08:12:14.712Z,15.23
2019-03-21T08:14:43.719Z,16.13
2019-03-21T08:17:12.746Z,15.17
2019-03-21T08:19:41.844Z,16.83
2019-03-21T08:22:10.971Z,17.07
2019-03-21T08:24:40.165Z,16.57
2019-03-21T08:27:09.194Z,16.83
2019-03-21T08:29:38.209Z,17.07
2019-03-21T08:32:07.212Z,16.90
2019-03-21T08:34:36.257Z,16.57
2019-03-21T08:37:05.289Z,15.20
2019-03-21T08:39:34.346Z,15.87
2019-03-21T08:42:03.430Z,15.17
2019-03-21T08:44:32.494Z,14.93
2019-03-21T08:47:08.522Z,16.30
2019-03-21T08:49:37.521Z,16.23
2019-03-21T08:52:06.600Z,14.87
2019-03-21T08:54:35.628Z,17.93
2019-03-21T08:57:04.626Z,14.50
2019-03-21T08:59:33.599Z,15.63
2019-03-21T09:02:02.710Z,15.40
2019-03-21T09:04:31.756Z,14.53
2019-03-21T09:07:00.770Z,15.93
2019-03-21T09:09:29.733Z,14.60
2019-03-21T09:11:58.814Z,13.33
2019-03-21T09:14:27.836Z,12.83
2019-03-21T09:16:56.836Z,11.93
2019-03-21T09:19:25.919Z,12.10
2019-03-21T09:21:54.917Z,13.33
2019-03-21T09:24:25.915Z,11.43
2019-03-21T09:26:54.667Z,10.70
2019-03-21T09:29:23.651Z,11.43
2019-03-21T09:31:52.722Z,11.90
2019-03-21T09:34:21.809Z,11.63
2019-03-21T09:36:50.872Z,11.90
2019-03-21T09:39:19.890Z,11.17
2019-03-21T09:41:48.983Z,11.47
2019-03-21T09:44:35.252Z,11.10
2019-03-21T09:47:04.243Z,12.17
2019-03-21T09:49:33.281Z,11.03
2019-03-21T09:52:02.391Z,11.37
2019-03-21T09:54:31.489Z,11.37
2019-03-21T09:57:00.461Z,10.73
2019-03-21T09:59:29.485Z,10.70
2019-03-21T10:01:58.596Z,9.73
2019-03-21T10:04:27.661Z,8.43
2019-03-21T10:06:56.800Z,8.50
2019-03-21T10:09:25.818Z,7.87
2019-03-21T10:11:54.880Z,8.23
2019-03-21T10:14:23.970Z,8.03
2019-03-21T10:16:52.974Z,7.50
2019-03-21T10:19:21.970Z,8.30
2019-03-21T10:21:50.973Z,8.73
2019-03-21T10:24:20.011Z,7.57
2019-03-21T10:26:48.998Z,8.40
2019-03-21T10:29:18.215Z,8.97
2019-03-21T10:31:47.256Z,9.00
2019-03-21T10:34:16.258Z,9.27
2019-03-21T10:36:45.380Z,8.53
2019-03-21T10:39:14.418Z,9.53
2019-03-21T10:41:43.391Z,8.77
2019-03-21T10:44:15.559Z,9.57
2019-03-21T10:46:44.316Z,9.97
2019-03-21T10:49:13.405Z,9.50
2019-03-21T10:51:50.451Z,9.90
2019-03-21T10:54:13.206Z,10.23
2019-03-21T10:56:42.249Z,9.33
2019-03-21T10:59:11.295Z,10.13
2019-03-21T11:01:40.276Z,10.30
2019-03-21T11:04:09.280Z,10.40
2019-03-21T11:06:38.383Z,10.53
2019-03-21T11:09:08.681Z,8.97
2019-03-21T11:11:37.727Z,10.03
2019-03-21T11:14:06.987Z,11.00
2019-03-21T11:16:36.049Z,10.30
2019-03-21T11:19:05.105Z,11.30
2019-03-21T11:21:34.259Z,11.17
2019-03-21T11:24:03.318Z,10.63
2019-03-21T11:26:32.389Z,10.00
2019-03-21T11:29:01.459Z,11.00
2019-03-21T11:31:30.469Z,10.23
2019-03-21T11:33:59.553Z,10.90
2019-03-21T11:36:37.763Z,10.90
2019-03-21T11:38:59.464Z,11.47
2019-03-21T11:41:28.537Z,11.53
2019-03-21T11:43:57.660Z,11.23
2019-03-21T11:46:26.737Z,10.13
2019-03-21T11:48:55.769Z,11.20
2019-03-21T11:51:24.969Z,10.33
2019-03-21T11:53:54.112Z,10.03
2019-03-21T11:56:23.134Z,10.23
2019-03-21T11:58:52.229Z,10.50
2019-03-21T12:01:21.559Z,11.00
2019-03-21T12:03:50.560Z,11.90
2019-03-21T12:06:19.593Z,11.00
2019-03-21T12:08:48.597Z,10.03
2019-03-21T12:11:17.645Z,10.00
2019-03-21T12:13:46.855Z,12.30
2019-03-21T12:16:15.865Z,11.33
2019-03-21T12:18:44.970Z,10.80
2019-03-21T12:21:14.006Z,10.93
2019-03-21T12:23:42.992Z,11.77
2019-03-21T12:26:12.032Z,11.53
2019-03-21T12:28:41.057Z,12.07
2019-03-21T12:31:10.088Z,11.70
2019-03-21T12:33:39.145Z,11.03
2019-03-21T12:36:08.269Z,11.57
2019-03-21T12:38:37.337Z,10.07
2019-03-21T12:41:06.407Z,10.90
2019-03-21T12:43:35.506Z,9.63
2019-03-21T12:46:04.661Z,11.27
2019-03-21T12:48:33.689Z,9.87
2019-03-21T12:51:02.750Z,10.60
2019-03-21T12:53:31.813Z,10.27
2019-03-21T12:56:00.814Z,10.43
2019-03-21T12:58:29.889Z,9.70
2019-03-21T13:00:59.048Z,9.23
2019-03-21T13:03:28.053Z,9.30
2019-03-21T13:05:57.082Z,7.57
2019-03-21T13:08:33.661Z,8.83
2019-03-21T13:10:56.791Z,8.30
2019-03-21T13:13:25.785Z,8.40
2019-03-21T13:15:54.854Z,8.40
2019-03-21T13:18:23.917Z,8.17
2019-03-21T13:20:52.921Z,7.47
2019-03-21T13:23:21.918Z,8.40
2019-03-21T13:25:50.996Z,6.90
2019-03-21T13:28:20.104Z,7.30
2019-03-21T13:30:51.268Z,7.43
2019-03-21T13:33:20.314Z,8.20
2019-03-21T13:35:49.561Z,7.33
2019-03-21T13:38:20.980Z,8.37
2019-03-21T13:40:50.031Z,6.10
2019-03-21T13:43:24.335Z,7.73
2019-03-21T13:45:53.411Z,7.90
2019-03-21T13:48:22.496Z,7.70
2019-03-21T13:50:51.627Z,7.57
2019-03-21T13:53:20.703Z,7.73
2019-03-21T13:55:49.722Z,6.93
2019-03-21T13:58:18.759Z,7.20
2019-03-21T14:00:47.862Z,6.83
2019-03-21T14:03:25.035Z,6.73
2019-03-21T14:05:47.647Z,7.23
2019-03-21T14:08:16.691Z,6.80
2019-03-21T14:10:45.811Z,7.30
2019-03-21T14:13:14.896Z,7.70
2019-03-21T14:15:43.900Z,7.37
2019-03-21T14:18:12.917Z,7.77
2019-03-21T14:20:41.925Z,7.43
2019-03-21T14:23:17.132Z,7.27
2019-03-21T14:25:41.723Z,7.83
2019-03-21T14:28:10.827Z,7.93
2019-03-21T14:30:39.895Z,7.20
2019-03-21T14:33:08.996Z,8.33
2019-03-21T14:35:38.070Z,8.60
2019-03-21T14:38:07.140Z,8.37
2019-03-21T14:40:36.175Z,8.70
2019-03-21T14:43:05.200Z,8.57
2019-03-21T14:45:34.254Z,8.47
2019-03-21T14:48:03.306Z,7.97
2019-03-21T14:50:32.348Z,8.43
2019-03-21T14:53:01.352Z,7.80
2019-03-21T14:55:30.362Z,8.33
2019-03-21T14:57:59.878Z,7.83
2019-03-21T15:00:28.939Z,8.43
2019-03-21T15:02:58.123Z,8.80
2019-03-21T15:05:27.265Z,9.30
2019-03-21T15:07:56.268Z,8.73
2019-03-21T15:10:27.526Z,8.90
2019-03-21T15:12:56.673Z,9.03
2019-03-21T15:15:25.769Z,9.00
2019-03-21T15:17:54.799Z,9.60
2019-03-21T15:20:23.931Z,9.07
2019-03-21T15:22:56.860Z,9.27
2019-03-21T15:25:25.085Z,8.00
2019-03-21T15:27:54.224Z,10.00
2019-03-21T15:30:26.070Z,9.57
2019-03-21T15:32:56.780Z,8.17
2019-03-21T15:35:25.905Z,8.40
2019-03-21T15:37:54.930Z,8.73
2019-03-21T15:40:24.085Z,8.77
2019-03-21T15:42:53.081Z,8.87
2019-03-21T15:45:24.181Z,8.03
2019-03-21T15:47:53.272Z,9.27
2019-03-21T15:50:37.628Z,8.70
2019-03-21T15:53:06.339Z,8.87
2019-03-21T15:55:35.547Z,9.17
2019-03-21T15:58:04.615Z,8.97
2019-03-21T16:00:39.623Z,8.80
2019-03-21T16:03:09.024Z,8.37
2019-03-21T16:05:38.246Z,9.17
2019-03-21T16:08:08.835Z,8.57
2019-03-21T16:10:38.278Z,8.60
2019-03-21T16:13:07.548Z,8.53
2019-03-21T16:15:36.634Z,9.00
2019-03-21T16:18:05.707Z,8.80
2019-03-21T16:20:34.818Z,9.90
2019-03-21T16:23:03.960Z,9.20
2019-03-21T16:25:33.069Z,10.07
2019-03-21T16:28:02.123Z,9.70
2019-03-21T16:30:31.179Z,8.87
2019-03-21T16:33:00.268Z,9.70
2019-03-21T16:35:29.439Z,9.10
2019-03-21T16:37:58.663Z,9.67
2019-03-21T16:40:27.842Z,8.87
2019-03-21T16:42:56.865Z,10.23
2019-03-21T16:45:25.889Z,9.43
2019-03-21T16:47:55.512Z,8.53
2019-03-21T16:50:24.560Z,8.87
2019-03-21T16:52:53.544Z,9.43
2019-03-21T16:55:22.635Z,9.03
2019-03-21T16:57:52.899Z,9.00
2019-03-21T17:00:21.948Z,9.03
2019-03-21T17:02:51.052Z,9.50
2019-03-21T17:05:22.311Z,8.60
2019-03-21T17:07:50.857Z,9.80
2019-03-21T17:10:19.906Z,9.10
2019-03-21T17:12:49.047Z,9.37
2019-03-21T17:15:18.155Z,9.17
2019-03-21T17:17:52.402Z,8.47
2019-03-21T17:20:24.544Z,8.10
2019-03-21T17:22:53.627Z,8.70
2019-03-21T17:25:22.802Z,8.63
2019-03-21T17:27:54.535Z,9.70
2019-03-21T17:30:22.762Z,8.73
2019-03-21T17:32:51.757Z,8.57
2019-03-21T17:35:20.853Z,9.30
2019-03-21T17:37:56.444Z,9.67
2019-03-21T17:40:25.539Z,9.10
2019-03-21T17:42:55.726Z,9.67
2019-03-21T17:45:27.033Z,10.47
2019-03-21T17:47:56.050Z,10.23
2019-03-21T17:50:25.675Z,11.30
2019-03-21T17:52:54.822Z,11.43
2019-03-21T17:55:23.882Z,10.87
2019-03-21T17:57:55.101Z,12.03
2019-03-21T18:00:27.204Z,10.70
2019-03-21T18:02:56.611Z,10.20
2019-03-21T18:05:26.097Z,11.00
2019-03-21T18:07:55.410Z,11.10
2019-03-21T18:10:25.599Z,10.77
2019-03-21T18:13:01.153Z,10.57
2019-03-21T18:15:33.480Z,11.10
2019-03-21T18:18:05.947Z,10.03
2019-03-21T18:20:35.474Z,12.10
2019-03-21T18:23:04.800Z,11.87
2019-03-21T18:25:34.110Z,11.33
2019-03-21T18:28:03.166Z,10.73
2019-03-21T18:30:32.214Z,11.57
2019-03-21T18:33:01.731Z,11.87
2019-03-21T18:35:32.741Z,11.50
2019-03-21T18:38:04.645Z,11.37
2019-03-21T18:40:36.639Z,11.13
2019-03-21T18:43:05.748Z,10.93
2019-03-21T18:45:34.923Z,10.17
2019-03-21T18:48:04.203Z,10.23
2019-03-21T18:50:33.323Z,10.83
2019-03-21T18:53:02.483Z,11.57
2019-03-21T18:55:31.641Z,10.77
2019-03-21T18:58:00.825Z,10.87
2019-03-21T19:00:29.905Z,10.87
2019-03-21T19:03:00.652Z,11.07
2019-03-21T19:05:29.794Z,11.93
2019-03-21T19:07:58.893Z,11.57
2019-03-21T19:10:28.043Z,12.67
2019-03-21T19:12:57.163Z,12.63
2019-03-21T19:15:26.288Z,11.73
2019-03-21T19:17:55.410Z,12.37
2019-03-21T19:20:27.271Z,10.80
2019-03-21T19:22:56.642Z,12.93
2019-03-21T19:25:25.782Z,11.87
2019-03-21T19:27:54.976Z,12.77
2019-03-21T19:30:24.055Z,13.17
2019-03-21T19:32:53.171Z,11.93
2019-03-21T19:35:22.297Z,13.40
2019-03-21T19:37:51.492Z,12.50
2019-03-21T19:40:20.646Z,12.47
2019-03-21T19:42:49.759Z,12.60
2019-03-21T19:45:18.909Z,13.43
2019-03-21T19:47:48.038Z,13.07
2019-03-21T19:50:17.457Z,13.73
2019-03-21T19:52:46.554Z,13.07
2019-03-21T19:55:15.644Z,13.40
2019-03-21T19:57:44.821Z,14.03
2019-03-21T20:00:15.417Z,13.17
2019-03-21T20:02:46.611Z,13.47
2019-03-21T20:05:15.714Z,14.27
2019-03-21T20:07:44.841Z,14.27
2019-03-21T20:10:14.583Z,14.83
2019-03-21T20:12:43.748Z,14.43
2019-03-21T20:15:13.202Z,15.83
2019-03-21T20:17:42.314Z,15.27
2019-03-21T20:20:11.540Z,14.67
2019-03-21T20:22:40.705Z,13.87
2019-03-21T20:25:10.024Z,14.60
2019-03-21T20:27:39.149Z,14.47
2019-03-21T20:30:09.226Z,15.60
2019-03-21T20:32:40.482Z,14.93
2019-03-21T20:35:10.304Z,15.37
2019-03-21T20:37:39.391Z,17.30
2019-03-21T20:40:09.104Z,16.23
2019-03-21T20:42:38.212Z,14.10
2019-03-21T20:45:09.062Z,15.23
2019-03-21T20:47:38.139Z,16.00
2019-03-21T20:50:07.817Z,15.93
2019-03-21T20:52:36.906Z,16.80
2019-03-21T20:55:06.207Z,15.87
2019-03-21T20:57:36.837Z,16.57
2019-03-21T21:00:07.145Z,15.50
2019-03-21T21:02:36.204Z,15.40
2019-03-21T21:05:05.695Z,16.10
2019-03-21T21:07:34.874Z,15.90
2019-03-21T21:10:04.534Z,17.23
2019-03-21T21:12:33.669Z,16.40
2019-03-21T21:15:02.716Z,15.53
2019-03-21T21:17:31.872Z,16.70
2019-03-21T21:20:00.999Z,16.27
2019-03-21T21:22:30.129Z,17.23
2019-03-21T21:24:59.242Z,17.00
2019-03-21T21:27:28.386Z,17.73
2019-03-21T21:29:57.482Z,16.77
2019-03-21T21:32:26.652Z,16.40
2019-03-21T21:34:55.702Z,16.83
2019-03-21T21:37:25.456Z,15.90
2019-03-21T21:39:54.522Z,17.13
2019-03-21T21:42:23.657Z,16.97
2019-03-21T21:44:52.693Z,16.60
2019-03-21T21:47:21.806Z,16.73
2019-03-21T21:49:50.922Z,17.00
2019-03-21T21:52:19.995Z,17.67
2019-03-21T21:54:49.306Z,18.23
2019-03-21T21:57:18.415Z,17.80
2019-03-21T21:59:47.496Z,16.97
2019-03-21T22:02:16.631Z,19.13
2019-03-21T22:04:46.122Z,18.17
2019-03-21T22:07:15.229Z,19.23
2019-03-21T22:09:44.243Z,19.90
2019-03-21T22:12:13.229Z,18.77
2019-03-21T22:14:44.570Z,19.00
2019-03-21T22:17:13.651Z,20.33
2019-03-21T22:19:42.657Z,20.67
2019-03-21T22:22:11.697Z,20.47
2019-03-21T22:24:41.257Z,22.13
2019-03-21T22:27:10.447Z,21.80
2019-03-21T22:29:39.465Z,22.93
2019-03-21T22:32:08.489Z,23.03
2019-03-21T22:34:37.463Z,21.80
2019-03-21T22:37:06.553Z,20.80
2019-03-21T22:39:35.791Z,24.93
2019-03-21T22:42:04.871Z,22.63
2019-03-21T22:44:33.989Z,23.30
2019-03-21T22:47:03.082Z,24.03
2019-03-21T22:49:32.079Z,23.33
2019-03-21T22:52:01.168Z,24.00
2019-03-21T22:54:30.260Z,23.60
2019-03-21T22:56:59.370Z,25.50
2019-03-21T22:59:28.421Z,24.67
2019-03-21T23:01:57.419Z,22.53
2019-03-21T23:04:26.382Z,24.50
2019-03-21T23:06:55.328Z,20.50
2019-03-21T23:09:24.408Z,20.53
2019-03-21T23:11:53.386Z,21.57
2019-03-21T23:14:22.397Z,20.07
2019-03-21T23:16:51.375Z,20.63
2019-03-21T23:19:20.407Z,19.27
2019-03-21T23:21:49.323Z,21.47
2019-03-21T23:24:18.305Z,17.97
2019-03-21T23:26:52.932Z,18.90
2019-03-21T23:29:17.980Z,18.40
2019-03-21T23:31:46.953Z,18.17
2019-03-21T23:34:15.951Z,19.47
2019-03-21T23:36:45.021Z,18.80
2019-03-21T23:39:14.072Z,18.97
2019-03-21T23:41:43.057Z,18.03
2019-03-21T23:44:12.032Z,19.23
2019-03-21T23:46:41.033Z,18.77
2019-03-21T23:49:10.114Z,18.37
2019-03-21T23:51:39.085Z,19.37
2019-03-21T23:54:08.173Z,19.30
2019-03-21T23:56:37.264Z,18.80
2019-03-21T23:59:06.268Z,18.47
